Time;durP1;ratioP1;P1;durP2;ratioP2;P2;SDS_P1;SDS_P2;PMS_P1;PMS_P2;Temp;Humidity;BMP_temperature;BMP_pressure;BME280_temperature;BME280_humidity;BME280_pressure;Samples;Min_cycle;Max_cycle;Signal;HPM_P1;HPM_P2
2023/04/28 00:00:44;;;;;;;3.50;1.90;;;16.60;72.30;;;;;;6184033;23;20666;-77
2023/04/28 00:03:09;;;;;;;2.17;1.67;;;16.50;72.70;;;;;;6184004;23;20450;-77
2023/04/28 00:05:35;;;;;;;2.17;1.70;;;16.50;72.80;;;;;;6183632;23;20005;-77
2023/04/28 00:08:02;;;;;;;2.47;1.95;;;16.50;72.60;;;;;;6158503;23;20012;-77
2023/04/28 00:10:28;;;;;;;2.80;2.15;;;16.50;72.90;;;;;;6183750;23;20009;-77
2023/04/28 00:12:53;;;;;;;2.72;1.85;;;16.40;73.30;;;;;;6184113;23;20431;-76
2023/04/28 00:15:19;;;;;;;3.05;1.75;;;16.40;73.70;;;;;;6183492;23;20001;-77
2023/04/28 00:17:45;;;;;;;3.30;1.85;;;16.40;74.00;;;;;;6184176;23;20012;-76
2023/04/28 00:20:11;;;;;;;2.65;1.83;;;16.40;74.20;;;;;;6184762;23;20002;-76
2023/04/28 00:22:37;;;;;;;2.47;1.90;;;16.40;74.50;;;;;;6184010;23;20001;-76
2023/04/28 00:25:03;;;;;;;2.28;1.90;;;16.40;74.00;;;;;;6184774;23;20339;-76
2023/04/28 00:27:29;;;;;;;3.08;2.25;;;16.40;73.80;;;;;;6183902;23;20447;-76
2023/04/28 00:29:55;;;;;;;3.78;2.40;;;16.40;74.20;;;;;;6184597;23;20012;-76
2023/04/28 00:32:20;;;;;;;4.00;2.00;;;16.30;74.30;;;;;;6185014;23;20001;-76
2023/04/28 00:34:46;;;;;;;4.10;2.67;;;16.30;74.30;;;;;;6184135;23;20005;-76
2023/04/28 00:37:12;;;;;;;2.53;2.13;;;16.30;74.20;;;;;;6184042;23;20340;-76
2023/04/28 00:39:37;;;;;;;4.28;2.40;;;16.30;74.30;;;;;;6184219;23;20076;-76
2023/04/28 00:42:03;;;;;;;5.00;2.88;;;16.20;74.30;;;;;;6158407;23;20005;-76
2023/04/28 00:44:29;;;;;;;5.22;2.58;;;16.20;74.10;;;;;;6184195;23;20012;-76
2023/04/28 00:46:56;;;;;;;6.30;2.72;;;16.20;74.10;;;;;;6184009;23;20009;-76
2023/04/28 00:49:22;;;;;;;3.80;2.35;;;16.20;74.40;;;;;;6184384;23;20009;-76
2023/04/28 00:51:47;;;;;;;4.28;2.90;;;16.20;74.60;;;;;;6184272;23;20033;-76
2023/04/28 00:54:13;;;;;;;4.93;2.33;;;16.20;74.70;;;;;;6183668;23;20076;-76
2023/04/28 00:56:39;;;;;;;4.85;2.70;;;16.10;74.90;;;;;;6157688;23;20001;-76
2023/04/28 00:59:05;;;;;;;3.20;2.60;;;16.10;75.20;;;;;;6184682;23;20009;-76
2023/04/28 01:01:32;;;;;;;4.55;2.83;;;16.10;75.30;;;;;;6183512;23;20102;-76
2023/04/28 01:03:58;;;;;;;3.25;2.25;;;16.10;75.40;;;;;;6183435;23;20009;-75
2023/04/28 01:06:24;;;;;;;4.47;2.78;;;16.10;75.60;;;;;;6183657;23;20051;-76
2023/04/28 01:08:49;;;;;;;4.78;2.80;;;16.10;75.60;;;;;;6184625;23;20147;-75
2023/04/28 01:11:16;;;;;;;3.20;2.40;;;16.10;75.60;;;;;;6182909;23;20009;-75
2023/04/28 01:13:42;;;;;;;2.85;2.33;;;16.00;75.20;;;;;;6182963;23;20005;-76
2023/04/28 01:16:07;;;;;;;3.50;2.20;;;16.00;75.10;;;;;;6157565;23;20051;-75
2023/04/28 01:18:33;;;;;;;3.33;2.22;;;16.00;75.20;;;;;;6184218;23;20072;-76
2023/04/28 01:20:59;;;;;;;4.18;2.55;;;16.00;75.50;;;;;;6184280;23;20028;-76
2023/04/28 01:23:25;;;;;;;3.65;2.25;;;16.00;75.40;;;;;;6183807;23;20020;-76
2023/04/28 01:25:51;;;;;;;4.30;2.33;;;16.00;75.30;;;;;;6157615;23;20356;-76
2023/04/28 01:28:17;;;;;;;2.72;2.20;;;16.00;75.30;;;;;;6184023;23;20008;-76
2023/04/28 01:30:42;;;;;;;3.17;2.28;;;16.00;75.20;;;;;;6157938;23;20005;-76
2023/04/28 01:33:08;;;;;;;2.90;1.95;;;16.00;75.20;;;;;;6184527;23;20011;-75
2023/04/28 01:35:34;;;;;;;2.90;2.50;;;15.90;75.20;;;;;;6156721;23;20012;-76
2023/04/28 01:38:00;;;;;;;2.90;2.00;;;15.90;75.20;;;;;;6183762;23;19997;-76
2023/04/28 01:40:25;;;;;;;3.70;2.38;;;15.90;75.30;;;;;;6182829;23;20742;-76
2023/04/28 01:42:51;;;;;;;3.03;1.92;;;15.90;75.50;;;;;;6183866;23;20323;-76
2023/04/28 01:45:17;;;;;;;3.03;2.15;;;15.90;75.60;;;;;;6183283;23;20016;-76
2023/04/28 01:47:42;;;;;;;6.28;2.65;;;15.90;75.50;;;;;;6183509;23;20029;-76
2023/04/28 01:50:08;;;;;;;3.65;2.33;;;15.90;75.50;;;;;;6183297;23;20030;-76
2023/04/28 01:52:34;;;;;;;4.65;2.33;;;15.90;75.40;;;;;;6182314;23;20001;-76
2023/04/28 01:55:00;;;;;;;2.67;2.10;;;15.90;75.50;;;;;;6183043;23;20070;-76
2023/04/28 01:57:27;;;;;;;3.50;2.33;;;15.90;75.40;;;;;;6183730;23;20994;-76
2023/04/28 01:59:53;;;;;;;6.00;2.58;;;15.90;75.10;;;;;;6184378;23;20055;-76
2023/04/28 02:02:19;;;;;;;3.47;2.58;;;15.90;75.10;;;;;;6183903;23;20353;-77
2023/04/28 02:04:45;;;;;;;3.00;2.25;;;15.90;75.10;;;;;;6182637;23;20005;-77
2023/04/28 02:07:11;;;;;;;3.92;2.75;;;15.80;75.30;;;;;;6183125;23;20221;-77
2023/04/28 02:09:36;;;;;;;4.43;2.30;;;15.80;75.80;;;;;;6183480;23;20001;-77
2023/04/28 02:12:02;;;;;;;6.53;3.25;;;15.70;75.20;;;;;;6183421;23;20117;-77
2023/04/28 02:14:31;;;;;;;4.65;2.55;;;15.70;75.10;;;;;;6183208;23;20036;-77
2023/04/28 02:16:58;;;;;;;4.57;2.65;;;15.70;75.00;;;;;;6183440;23;20062;-77
2023/04/28 02:19:24;;;;;;;3.92;2.67;;;15.70;75.40;;;;;;6184131;23;20008;-77
2023/04/28 02:21:57;;;;;;;6.07;2.80;;;15.60;75.30;;;;;;6183838;23;20340;-77
2023/04/28 02:24:22;;;;;;;5.55;3.13;;;15.60;75.40;;;;;;6156905;23;20009;-77
2023/04/28 02:26:48;;;;;;;3.90;2.80;;;15.60;75.30;;;;;;6182918;23;20015;-76
2023/04/28 02:29:14;;;;;;;5.85;3.35;;;15.60;75.40;;;;;;6156571;23;20005;-77
2023/04/28 02:31:40;;;;;;;11.02;3.47;;;15.60;75.60;;;;;;6183764;23;20005;-77
2023/04/28 02:34:05;;;;;;;7.70;3.60;;;15.60;75.50;;;;;;6182460;23;20423;-77
2023/04/28 02:36:32;;;;;;;6.40;3.70;;;15.60;75.40;;;;;;6182772;23;20012;-77
2023/04/28 02:38:57;;;;;;;7.10;3.35;;;15.60;75.80;;;;;;6183701;23;20008;-77
2023/04/28 02:41:23;;;;;;;5.70;3.47;;;15.60;75.90;;;;;;6185157;23;20001;-77
2023/04/28 02:43:49;;;;;;;6.22;3.45;;;15.50;75.80;;;;;;6185872;23;20111;-77
2023/04/28 02:46:15;;;;;;;5.93;3.30;;;15.60;75.60;;;;;;6183785;23;20040;-77
2023/04/28 02:48:40;;;;;;;6.03;3.78;;;15.50;75.60;;;;;;6185698;23;20001;-76
2023/04/28 02:51:06;;;;;;;8.43;3.50;;;15.50;75.90;;;;;;6184991;23;20694;-77
2023/04/28 02:53:32;;;;;;;6.07;3.55;;;15.50;75.40;;;;;;6184913;23;20349;-77
2023/04/28 02:55:58;;;;;;;4.90;3.28;;;15.50;74.60;;;;;;6185596;23;20493;-77
2023/04/28 02:58:24;;;;;;;7.15;3.67;;;15.50;74.20;;;;;;6186088;23;20000;-78
2023/04/28 03:00:49;;;;;;;5.95;4.10;;;15.50;73.80;;;;;;6159194;23;20001;-77
2023/04/28 03:03:15;;;;;;;5.78;4.20;;;15.50;73.40;;;;;;6184058;23;20035;-77
2023/04/28 03:05:41;;;;;;;4.55;3.90;;;15.50;73.20;;;;;;6184453;23;20005;-77
2023/04/28 03:08:06;;;;;;;7.82;4.20;;;15.50;72.80;;;;;;6184354;23;20001;-77
2023/04/28 03:10:32;;;;;;;9.10;4.20;;;15.50;72.70;;;;;;6185164;23;20001;-76
2023/04/28 03:12:58;;;;;;;4.88;3.97;;;15.50;72.50;;;;;;6185305;23;20124;-76
2023/04/28 03:15:24;;;;;;;5.25;4.15;;;15.50;72.20;;;;;;6184293;23;20423;-77
2023/04/28 03:17:50;;;;;;;6.78;3.78;;;15.50;72.40;;;;;;6184468;23;20096;-77
2023/04/28 03:20:15;;;;;;;6.65;5.18;;;15.50;72.20;;;;;;6184893;23;20436;-77
2023/04/28 03:22:41;;;;;;;8.50;4.35;;;15.50;72.10;;;;;;6184446;23;20012;-77
2023/04/28 03:25:07;;;;;;;5.25;3.67;;;15.50;71.90;;;;;;6184168;23;20313;-77
2023/04/28 03:27:33;;;;;;;7.35;3.70;;;15.50;71.70;;;;;;6184348;23;20012;-77
2023/04/28 03:29:58;;;;;;;6.18;4.03;;;15.50;71.40;;;;;;6184681;23;20005;-77
2023/04/28 03:32:24;;;;;;;4.60;3.85;;;15.50;71.10;;;;;;6185311;23;20048;-77
2023/04/28 03:34:50;;;;;;;5.50;3.78;;;15.50;70.90;;;;;;6184406;23;20442;-77
2023/04/28 03:37:15;;;;;;;5.03;3.83;;;15.50;71.00;;;;;;6183782;23;20005;-77
2023/04/28 03:39:41;;;;;;;6.32;4.45;;;15.50;70.80;;;;;;6184329;23;20076;-76
2023/04/28 03:42:06;;;;;;;7.00;3.90;;;15.50;70.80;;;;;;6158893;23;20103;-76
2023/04/28 03:44:32;;;;;;;5.13;3.97;;;15.50;70.70;;;;;;6186212;23;20005;-77
2023/04/28 03:46:58;;;;;;;6.72;4.28;;;15.40;70.70;;;;;;6156703;23;20443;-77
2023/04/28 03:49:24;;;;;;;6.28;3.95;;;15.40;70.30;;;;;;6184602;23;20428;-77
2023/04/28 03:51:50;;;;;;;6.05;4.05;;;15.40;70.50;;;;;;6184334;23;20012;-76
2023/04/28 03:54:16;;;;;;;10.35;5.15;;;15.30;70.60;;;;;;6184601;23;20005;-76
2023/04/28 03:56:43;;;;;;;6.60;4.68;;;15.30;70.90;;;;;;6184227;23;20347;-75
2023/04/28 03:59:10;;;;;;;7.50;4.85;;;15.20;70.90;;;;;;6184434;23;20077;-75
2023/04/28 04:01:36;;;;;;;7.63;4.90;;;15.20;71.10;;;;;;6184568;23;19997;-76
2023/04/28 04:04:02;;;;;;;8.95;5.88;;;15.10;71.20;;;;;;6183211;23;19997;-76
2023/04/28 04:06:28;;;;;;;6.63;5.00;;;15.10;71.30;;;;;;6183252;23;20005;-76
2023/04/28 04:08:54;;;;;;;6.85;5.20;;;15.00;71.40;;;;;;6184578;23;20293;-78
2023/04/28 04:11:20;;;;;;;6.32;4.45;;;15.00;71.70;;;;;;6183984;23;20044;-75
2023/04/28 04:13:46;;;;;;;6.68;5.13;;;14.90;71.90;;;;;;6184866;23;20130;-76
2023/04/28 04:16:14;;;;;;;7.38;5.30;;;14.90;72.10;;;;;;6184957;23;20005;-75
2023/04/28 04:18:40;;;;;;;6.93;5.32;;;14.80;72.30;;;;;;6185416;23;20063;-76
2023/04/28 04:21:06;;;;;;;7.22;5.38;;;14.80;72.40;;;;;;6183574;23;20355;-76
2023/04/28 04:23:31;;;;;;;6.40;4.95;;;14.80;72.60;;;;;;6185876;23;20028;-76
2023/04/28 04:25:57;;;;;;;6.32;4.97;;;14.80;72.70;;;;;;6184352;23;20005;-76
2023/04/28 04:28:23;;;;;;;9.60;5.75;;;14.70;72.70;;;;;;6183813;23;20005;-76
2023/04/28 04:30:48;;;;;;;6.75;5.07;;;14.70;72.90;;;;;;6185499;23;20001;-76
2023/04/28 04:33:14;;;;;;;6.03;4.85;;;14.70;72.80;;;;;;6184410;23;20452;-76
2023/04/28 04:35:40;;;;;;;7.63;4.43;;;14.70;73.00;;;;;;6155029;23;19998;-76
2023/04/28 04:38:09;;;;;;;8.88;5.10;;;14.70;73.00;;;;;;6181172;23;20032;-76
2023/04/28 04:40:34;;;;;;;6.22;4.78;;;14.60;73.20;;;;;;6155909;23;20072;-75
2023/04/28 04:43:00;;;;;;;7.07;5.30;;;14.60;73.10;;;;;;6183839;23;20423;-73
2023/04/28 04:45:26;;;;;;;6.00;5.07;;;14.60;73.30;;;;;;6184259;23;20316;-73
2023/04/28 04:47:52;;;;;;;8.18;5.78;;;14.60;73.30;;;;;;6184650;23;20008;-73
2023/04/28 04:50:17;;;;;;;6.97;5.13;;;14.60;73.40;;;;;;6184548;23;20001;-73
2023/04/28 04:52:43;;;;;;;6.20;4.80;;;14.60;73.60;;;;;;6182854;23;20004;-73
2023/04/28 04:55:10;;;;;;;9.13;5.65;;;14.60;73.60;;;;;;6183833;23;20076;-73
2023/04/28 04:57:36;;;;;;;7.90;5.50;;;14.70;74.00;;;;;;6185010;23;19997;-73
2023/04/28 05:00:03;;;;;;;6.78;4.90;;;14.70;73.90;;;;;;6184810;23;20001;-73
2023/04/28 05:02:29;;;;;;;7.45;5.85;;;14.80;73.70;;;;;;6184040;23;20001;-73
2023/04/28 05:04:54;;;;;;;8.35;5.65;;;14.80;73.50;;;;;;6185119;23;20016;-73
2023/04/28 05:07:20;;;;;;;5.63;4.93;;;14.80;73.60;;;;;;6185218;23;20001;-72
2023/04/28 05:09:46;;;;;;;10.00;6.38;;;14.80;73.50;;;;;;6158901;23;20013;-73
2023/04/28 05:12:11;;;;;;;7.28;5.82;;;14.80;73.40;;;;;;6185114;23;20057;-73
2023/04/28 05:14:37;;;;;;;6.60;5.35;;;14.80;73.50;;;;;;6185508;23;20014;-73
2023/04/28 05:17:23;;;;;;;6.75;5.30;;;14.80;73.60;;;;;;6185591;23;20080;-73
2023/04/28 05:19:49;;;;;;;8.13;5.28;;;14.90;73.60;;;;;;6185458;23;20001;-73
2023/04/28 05:22:15;;;;;;;5.35;4.43;;;14.80;73.50;;;;;;6185265;23;20012;-73
2023/04/28 05:24:41;;;;;;;7.10;5.40;;;14.80;73.70;;;;;;6185200;23;20005;-73
2023/04/28 05:27:06;;;;;;;7.90;5.10;;;14.80;73.60;;;;;;6159074;23;20032;-73
2023/04/28 05:29:32;;;;;;;7.57;5.70;;;14.80;73.70;;;;;;6185692;23;20059;-73
2023/04/28 05:31:57;;;;;;;7.78;5.53;;;14.80;73.90;;;;;;6184600;23;20009;-73
2023/04/28 05:34:23;;;;;;;9.45;6.15;;;14.90;74.10;;;;;;6185099;23;20001;-73
2023/04/28 05:36:50;;;;;;;6.78;5.65;;;14.90;74.10;;;;;;6184908;23;20004;-74
2023/04/28 05:39:16;;;;;;;6.40;5.47;;;14.90;74.20;;;;;;6185197;23;20047;-73
2023/04/28 05:41:42;;;;;;;7.20;5.68;;;14.90;74.30;;;;;;6184589;23;20001;-73
2023/04/28 05:44:08;;;;;;;8.07;5.10;;;15.00;74.20;;;;;;6185146;23;20016;-73
2023/04/28 05:46:33;;;;;;;8.35;6.43;;;15.10;74.40;;;;;;6158974;23;20028;-73
2023/04/28 05:48:59;;;;;;;9.68;6.82;;;15.20;74.20;;;;;;6158537;23;20379;-73
2023/04/28 05:51:26;;;;;;;9.05;6.65;;;15.20;73.90;;;;;;6184510;23;19997;-73
2023/04/28 05:54:04;;;;;;;7.88;6.38;;;15.30;73.90;;;;;;6184665;23;20399;-73
2023/04/28 05:56:29;;;;;;;10.98;6.22;;;15.40;73.80;;;;;;6184656;23;19997;-75
2023/04/28 05:58:55;;;;;;;7.50;6.13;;;15.50;74.00;;;;;;6184935;23;20001;-74
2023/04/28 06:01:21;;;;;;;7.32;5.63;;;15.60;73.50;;;;;;6184692;23;20055;-74
2023/04/28 06:03:47;;;;;;;7.53;5.85;;;15.60;73.20;;;;;;6184680;23;20001;-75
2023/04/28 06:06:13;;;;;;;5.88;5.25;;;15.60;73.30;;;;;;6184567;23;20005;-74
2023/04/28 06:08:39;;;;;;;8.70;5.50;;;15.70;73.30;;;;;;6184763;23;20037;-74
2023/04/28 06:11:05;;;;;;;6.85;5.53;;;15.70;73.20;;;;;;6184723;23;20005;-74
2023/04/28 06:13:31;;;;;;;7.65;5.50;;;15.70;73.40;;;;;;6183880;23;20005;-74
2023/04/28 06:15:56;;;;;;;9.43;6.07;;;15.70;73.40;;;;;;6186425;23;20482;-75
2023/04/28 06:18:23;;;;;;;6.65;5.10;;;15.70;73.40;;;;;;6186262;23;20022;-74
2023/04/28 06:20:49;;;;;;;7.13;5.10;;;15.70;73.60;;;;;;6159990;23;20296;-74
2023/04/28 06:23:14;;;;;;;7.53;5.20;;;15.70;73.80;;;;;;6186893;23;20008;-75
2023/04/28 06:25:40;;;;;;;6.57;5.38;;;15.70;74.00;;;;;;6187068;23;20377;-74
2023/04/28 06:28:06;;;;;;;5.78;4.53;;;15.70;74.00;;;;;;6187019;23;20044;-74
2023/04/28 06:30:33;;;;;;;6.53;5.40;;;15.80;74.10;;;;;;6186603;23;20005;-74
2023/04/28 06:32:59;;;;;;;7.57;6.05;;;15.80;74.20;;;;;;6185952;23;20471;-74
2023/04/28 06:35:25;;;;;;;8.35;6.05;;;15.80;74.30;;;;;;6186392;23;20036;-74
2023/04/28 06:37:50;;;;;;;6.05;4.72;;;15.80;74.50;;;;;;6186758;23;20108;-76
2023/04/28 06:40:16;;;;;;;9.05;5.07;;;15.80;74.80;;;;;;6186778;23;20001;-77
2023/04/28 06:42:42;;;;;;;8.25;5.70;;;15.90;75.10;;;;;;6186184;23;20092;-78
2023/04/28 06:45:08;;;;;;;8.30;5.88;;;15.80;75.10;;;;;;6187076;23;20431;-77
2023/04/28 06:47:35;;;;;;;6.97;5.93;;;15.90;75.20;;;;;;6159563;23;20473;-77
2023/04/28 06:50:00;;;;;;;8.07;5.47;;;15.90;75.30;;;;;;6186258;23;20044;-77
2023/04/28 06:52:28;;;;;;;7.15;5.10;;;15.90;75.20;;;;;;6186534;23;20060;-77
2023/04/28 06:54:54;;;;;;;8.10;5.60;;;16.00;75.10;;;;;;6186065;23;20028;-77
2023/04/28 06:57:20;;;;;;;8.45;5.85;;;16.00;75.20;;;;;;6186172;23;19998;-77
2023/04/28 06:59:46;;;;;;;9.10;5.53;;;16.10;75.30;;;;;;6185230;23;20004;-77
2023/04/28 07:02:11;;;;;;;7.78;5.38;;;16.10;75.30;;;;;;6185071;23;20076;-77
2023/04/28 07:04:37;;;;;;;6.03;4.90;;;16.20;75.10;;;;;;6184737;23;20008;-77
2023/04/28 07:07:06;;;;;;;6.05;5.00;;;16.30;75.00;;;;;;6184390;23;20438;-77
2023/04/28 07:09:36;;;;;;;6.75;5.03;;;16.30;75.20;;;;;;6183554;23;19997;-77
2023/04/28 07:12:03;;;;;;;5.88;4.85;;;16.30;75.30;;;;;;6183461;23;20001;-77
2023/04/28 07:14:29;;;;;;;6.63;4.90;;;16.40;75.40;;;;;;6184009;23;20001;-77
2023/04/28 07:16:55;;;;;;;5.28;4.65;;;16.50;75.20;;;;;;6185709;23;19993;-77
2023/04/28 07:19:20;;;;;;;6.40;4.90;;;16.50;75.20;;;;;;6186133;23;20080;-77
2023/04/28 07:21:46;;;;;;;5.50;4.20;;;16.60;75.20;;;;;;6186027;23;19997;-77
2023/04/28 07:24:12;;;;;;;3.38;3.08;;;16.70;75.10;;;;;;6186349;23;20001;-77
2023/04/28 07:26:37;;;;;;;5.72;3.30;;;16.70;74.90;;;;;;6186463;23;20080;-75
2023/04/28 07:29:03;;;;;;;7.22;3.53;;;16.80;75.00;;;;;;6186598;23;20005;-75
2023/04/28 07:31:29;;;;;;;5.68;3.63;;;16.90;75.20;;;;;;6185828;23;19997;-75
2023/04/28 07:33:55;;;;;;;4.40;3.53;;;16.90;74.90;;;;;;6186136;23;20091;-75
2023/04/28 07:36:21;;;;;;;5.57;4.38;;;17.00;75.00;;;;;;6159978;23;20040;-76
2023/04/28 07:38:46;;;;;;;3.65;3.20;;;17.00;75.10;;;;;;6160399;23;20005;-75
2023/04/28 07:41:13;;;;;;;4.07;3.20;;;17.10;75.20;;;;;;6185364;23;20012;-75
2023/04/28 07:43:39;;;;;;;4.50;3.78;;;17.10;75.80;;;;;;6185875;23;20061;-74
2023/04/28 07:46:07;;;;;;;4.25;3.28;;;17.20;75.30;;;;;;6159225;23;20036;-75
2023/04/28 07:48:33;;;;;;;3.70;3.25;;;17.30;75.40;;;;;;6186434;23;20012;-75
2023/04/28 07:50:59;;;;;;;4.68;2.85;;;17.40;75.40;;;;;;6186525;23;20001;-76
2023/04/28 07:53:24;;;;;;;3.03;2.75;;;17.40;75.30;;;;;;6186383;23;20056;-76
2023/04/28 07:55:50;;;;;;;4.95;2.97;;;17.40;75.20;;;;;;6185560;23;20051;-76
2023/04/28 07:58:16;;;;;;;3.15;2.75;;;17.40;74.60;;;;;;6159615;23;20043;-76
2023/04/28 08:00:41;;;;;;;3.42;2.13;;;17.50;74.80;;;;;;6186497;23;20007;-76
2023/04/28 08:03:07;;;;;;;3.78;3.00;;;17.50;74.50;;;;;;6186881;23;20005;-76
2023/04/28 08:05:33;;;;;;;3.60;2.97;;;17.50;74.50;;;;;;6186811;23;20324;-76
2023/04/28 08:07:58;;;;;;;4.82;3.70;;;17.50;74.70;;;;;;6186583;23;20386;-76
2023/04/28 08:10:25;;;;;;;4.97;3.22;;;17.60;74.70;;;;;;6186664;23;20060;-77
2023/04/28 08:12:51;;;;;;;6.97;3.35;;;17.70;74.50;;;;;;6159740;23;20001;-77
2023/04/28 08:15:17;;;;;;;4.47;2.90;;;17.70;74.20;;;;;;6186355;23;20009;-77
2023/04/28 08:17:42;;;;;;;3.63;2.88;;;17.80;74.00;;;;;;6186552;23;20540;-77
2023/04/28 08:20:08;;;;;;;3.33;2.60;;;17.80;73.60;;;;;;6186140;23;20363;-77
2023/04/28 08:22:35;;;;;;;3.20;2.90;;;17.90;73.20;;;;;;6159814;23;20388;-77
2023/04/28 08:25:00;;;;;;;3.13;2.67;;;17.90;72.70;;;;;;6186225;23;20296;-77
2023/04/28 08:27:26;;;;;;;3.05;2.75;;;18.10;72.70;;;;;;6185969;23;20001;-76
2023/04/28 08:29:52;;;;;;;2.47;2.03;;;18.20;72.60;;;;;;6186065;23;20086;-76
2023/04/28 08:32:18;;;;;;;4.75;2.30;;;18.30;71.70;;;;;;6185956;23;20005;-76
2023/04/28 08:34:44;;;;;;;2.95;2.28;;;18.40;70.80;;;;;;6186120;23;19997;-76
2023/04/28 08:37:09;;;;;;;2.88;2.53;;;18.50;70.30;;;;;;6185805;23;20007;-76
2023/04/28 08:39:35;;;;;;;2.50;2.30;;;18.50;70.80;;;;;;6186090;23;20009;-76
2023/04/28 08:42:04;;;;;;;2.97;2.10;;;18.60;70.20;;;;;;6186002;23;20012;-76
2023/04/28 08:44:40;;;;;;;2.63;2.15;;;18.70;69.50;;;;;;6159838;23;20528;-76
2023/04/28 08:47:13;;;;;;;5.50;2.22;;;18.90;69.40;;;;;;6186036;23;20008;-76
2023/04/28 08:49:39;;;;;;;2.50;2.10;;;19.00;69.30;;;;;;6185887;23;20012;-76
2023/04/28 08:52:16;;;;;;;2.80;2.03;;;19.00;68.30;;;;;;6186423;23;20293;-76
2023/04/28 08:54:43;;;;;;;2.10;1.88;;;19.10;67.30;;;;;;6159656;23;20023;-76
2023/04/28 08:57:09;;;;;;;2.08;1.88;;;19.10;67.40;;;;;;6185584;23;20005;-76
2023/04/28 08:59:38;;;;;;;3.20;1.90;;;19.20;66.10;;;;;;6186175;23;20304;-76
2023/04/28 09:02:05;;;;;;;3.77;1.30;;;19.20;66.50;;;;;;6186109;23;20008;-76
2023/04/28 09:04:30;;;;;;;2.78;1.35;;;19.20;65.60;;;;;;6159662;23;20412;-76
2023/04/28 09:06:56;;;;;;;2.40;1.70;;;19.30;64.80;;;;;;6185794;23;20004;-76
2023/04/28 09:09:29;;;;;;;2.75;2.00;;;19.30;64.80;;;;;;6185678;23;20312;-76
2023/04/28 09:11:59;;;;;;;4.03;2.53;;;19.30;64.60;;;;;;6185983;23;20080;-76
2023/04/28 09:14:27;;;;;;;3.78;2.40;;;19.40;65.00;;;;;;6186224;23;20001;-76
2023/04/28 09:16:52;;;;;;;2.60;2.40;;;19.40;64.60;;;;;;6185748;23;20008;-76
2023/04/28 09:19:18;;;;;;;4.68;2.53;;;19.40;64.60;;;;;;6186214;23;20424;-76
2023/04/28 09:21:55;;;;;;;3.28;2.42;;;19.50;64.80;;;;;;6184775;23;20005;-75
2023/04/28 09:24:39;;;;;;;4.00;2.90;;;19.50;64.10;;;;;;6184766;23;19997;-78
2023/04/28 09:27:09;;;;;;;3.03;2.35;;;19.50;64.10;;;;;;6184866;23;20342;-75
2023/04/28 09:29:35;;;;;;;2.83;1.58;;;19.50;64.20;;;;;;6183803;23;20081;-75
2023/04/28 09:32:19;;;;;;;2.90;1.63;;;19.60;64.30;;;;;;6184475;23;20013;-76
2023/04/28 09:34:47;;;;;;;2.28;1.38;;;19.70;64.50;;;;;;6184797;23;19997;-76
2023/04/28 09:37:20;;;;;;;1.65;1.13;;;19.70;63.80;;;;;;6184209;23;20001;-76
2023/04/28 09:39:48;;;;;;;1.08;0.93;;;19.80;63.10;;;;;;6183710;23;20424;-76
2023/04/28 09:42:33;;;;;;;2.25;1.23;;;20.00;62.20;;;;;;6184435;23;20016;-76
2023/04/28 09:45:26;;;;;;;3.20;1.20;;;20.00;61.00;;;;;;6158866;23;20544;-76
2023/04/28 09:47:51;;;;;;;1.80;1.23;;;20.10;60.90;;;;;;6176526;23;20417;-76
2023/04/28 09:50:17;;;;;;;1.88;1.30;;;20.20;61.00;;;;;;6186133;23;20040;-76
2023/04/28 09:52:47;;;;;;;2.05;1.25;;;20.30;61.00;;;;;;6186911;23;20005;-77
2023/04/28 09:55:14;;;;;;;2.22;1.27;;;20.40;60.10;;;;;;6160420;23;20001;-77
2023/04/28 09:57:40;;;;;;;1.75;1.20;;;20.60;60.60;;;;;;6186436;23;20008;-76
2023/04/28 10:00:08;;;;;;;2.78;1.10;;;20.80;60.30;;;;;;6186427;23;19997;-76
2023/04/28 10:02:35;;;;;;;2.63;1.25;;;20.90;60.30;;;;;;6186893;23;20424;-76
2023/04/28 10:05:02;;;;;;;1.55;1.20;;;21.10;60.60;;;;;;6186321;23;20005;-77
2023/04/28 10:07:29;;;;;;;2.25;1.20;;;21.20;60.40;;;;;;6186989;23;20064;-77
2023/04/28 10:09:56;;;;;;;1.13;1.02;;;21.40;59.40;;;;;;6186754;23;20001;-77
2023/04/28 10:12:23;;;;;;;4.50;1.00;;;21.50;58.00;;;;;;6185978;23;20411;-77
2023/04/28 10:14:53;;;;;;;1.00;0.70;;;21.50;54.30;;;;;;6186337;23;20032;-77
2023/04/28 10:17:20;;;;;;;0.82;0.82;;;21.60;55.70;;;;;;6186708;23;20001;-77
2023/04/28 10:19:47;;;;;;;2.70;0.70;;;21.80;54.70;;;;;;6186791;23;20008;-77
2023/04/28 10:22:36;;;;;;;1.50;0.77;;;22.00;55.00;;;;;;6186323;23;20489;-77
2023/04/28 10:25:11;;;;;;;2.00;0.80;;;22.20;54.60;;;;;;6117881;23;20004;-77
2023/04/28 10:27:42;;;;;;;1.30;0.68;;;22.40;54.40;;;;;;6185913;23;20005;-77
2023/04/28 10:30:16;;;;;;;1.33;0.77;;;22.60;53.40;;;;;;6186141;23;20015;-77
2023/04/28 10:32:42;;;;;;;3.50;0.85;;;22.80;52.00;;;;;;6186158;23;20021;-77
2023/04/28 10:35:26;;;;;;;0.95;0.38;;;22.90;51.20;;;;;;6186130;23;20319;-77
2023/04/28 10:38:12;;;;;;;0.40;0.38;;;23.00;47.60;;;;;;6185617;23;20001;-77
2023/04/28 10:40:41;;;;;;;0.55;0.40;;;23.10;47.50;;;;;;6186678;23;20001;-78
2023/04/28 10:43:09;;;;;;;0.77;0.55;;;23.20;48.20;;;;;;6185823;23;20293;-78
2023/04/28 10:45:54;;;;;;;1.00;0.50;;;23.30;47.90;;;;;;6186123;23;20059;-76
2023/04/28 10:48:40;;;;;;;5.53;2.00;;;23.40;45.40;;;;;;6186228;23;20031;-76
2023/04/28 10:51:08;;;;;;;2.22;0.90;;;23.50;45.90;;;;;;6185028;23;20005;-76
2023/04/28 10:53:43;;;;;;;0.60;0.43;;;23.50;45.10;;;;;;6159785;23;20971;-76
2023/04/28 10:56:09;;;;;;;0.70;0.50;;;23.60;43.30;;;;;;6186312;23;19997;-76
2023/04/28 10:58:38;;;;;;;0.93;0.40;;;23.70;43.30;;;;;;6186030;23;20365;-76
2023/04/28 11:01:25;;;;;;;2.15;0.80;;;23.80;42.60;;;;;;6186441;23;20001;-76
2023/04/28 11:04:03;;;;;;;1.98;1.10;;;23.90;42.60;;;;;;6186149;23;20080;-76
2023/04/28 11:06:35;;;;;;;0.95;0.70;;;24.00;44.50;;;;;;6186776;23;20005;-77
2023/04/28 11:09:13;;;;;;;1.08;0.90;;;24.10;46.00;;;;;;6186039;23;20001;-77
2023/04/28 11:11:59;;;;;;;3.83;1.05;;;24.20;46.60;;;;;;6185854;23;20061;-77
2023/04/28 11:14:25;;;;;;;1.17;1.08;;;24.20;47.00;;;;;;6185887;23;20009;-78
2023/04/28 11:17:01;;;;;;;1.90;1.20;;;24.30;47.50;;;;;;6186490;23;20040;-77
2023/04/28 11:19:32;;;;;;;1.50;1.30;;;24.40;47.60;;;;;;6186730;23;20009;-77
2023/04/28 11:21:58;;;;;;;;;;;24.40;48.90;;;;;;6186289;23;20033;-78
2023/04/28 11:24:26;;;;;;;2.83;1.10;;;24.40;49.60;;;;;;6185428;23;19911;-78
2023/04/28 11:26:52;;;;;;;1.90;1.05;;;24.50;49.30;;;;;;6185976;23;20004;-78
2023/04/28 11:29:34;;;;;;;2.35;1.00;;;24.60;48.90;;;;;;6185994;23;20004;-78
2023/04/28 11:32:09;;;;;;;1.40;1.10;;;24.80;49.90;;;;;;6185857;23;20012;-78
2023/04/28 11:34:36;;;;;;;1.98;1.50;;;24.90;50.30;;;;;;6185911;23;20632;-78
2023/04/28 11:37:04;;;;;;;2.05;1.38;;;25.10;49.60;;;;;;6185447;23;20483;-78
2023/04/28 11:39:32;;;;;;;2.33;1.38;;;25.20;49.20;;;;;;6185549;23;20008;-78
2023/04/28 11:41:59;;;;;;;1.05;0.95;;;25.20;49.20;;;;;;6185578;23;20478;-78
2023/04/28 11:44:30;;;;;;;2.33;1.42;;;25.00;48.60;;;;;;6186778;23;20002;-78
2023/04/28 11:47:01;;;;;;;1.88;1.38;;;25.00;48.30;;;;;;6186357;23;19997;-76
2023/04/28 11:49:46;;;;;;;1.35;0.90;;;25.00;48.10;;;;;;6186136;23;20001;-76
2023/04/28 11:52:12;;;;;;;1.10;1.00;;;25.00;47.40;;;;;;6186609;23;20358;-76
2023/04/28 11:54:41;;;;;;;1.40;0.88;;;25.10;47.40;;;;;;6186498;23;20320;-76
2023/04/28 11:57:20;;;;;;;1.60;1.02;;;25.20;46.90;;;;;;6186208;23;20076;-76
2023/04/28 11:59:46;;;;;;;1.08;0.75;;;25.30;46.90;;;;;;6186353;23;20001;-76
2023/04/28 12:02:12;;;;;;;1.05;0.70;;;25.40;47.00;;;;;;6186336;23;20016;-76
2023/04/28 12:04:38;;;;;;;0.77;0.60;;;25.40;46.60;;;;;;6186375;23;20005;-76
2023/04/28 12:07:09;;;;;;;1.52;0.80;;;25.50;45.40;;;;;;6186402;23;20076;-76
2023/04/28 12:09:35;;;;;;;;;;;25.50;44.90;;;;;;6160692;23;20012;-76
2023/04/28 12:12:06;;;;;;;0.93;0.63;;;25.60;45.20;;;;;;6185711;23;19907;-76
2023/04/28 12:14:52;;;;;;;0.50;0.50;;;25.70;44.40;;;;;;6185717;23;20001;-76
2023/04/28 12:17:31;;;;;;;0.82;0.60;;;25.70;44.30;;;;;;6186118;23;20021;-76
2023/04/28 12:19:59;;;;;;;1.35;0.70;;;25.80;44.60;;;;;;6186272;23;20001;-76
2023/04/28 12:22:26;;;;;;;0.90;0.80;;;25.90;44.50;;;;;;6185415;23;20016;-76
2023/04/28 12:25:11;;;;;;;0.70;0.47;;;26.00;44.30;;;;;;6185063;23;20081;-76
2023/04/28 12:27:39;;;;;;;0.63;0.50;;;26.10;43.10;;;;;;6186181;23;20005;-76
2023/04/28 12:30:19;;;;;;;2.50;0.68;;;26.20;42.80;;;;;;6159985;23;20056;-76
2023/04/28 12:32:45;;;;;;;0.80;0.50;;;26.30;42.40;;;;;;6185109;23;20005;-76
2023/04/28 12:35:11;;;;;;;0.50;0.40;;;26.30;42.00;;;;;;6185966;23;20004;-76
2023/04/28 12:37:38;;;;;;;0.50;0.40;;;26.40;41.70;;;;;;6159892;23;20062;-76
2023/04/28 12:40:05;;;;;;;1.30;0.47;;;26.30;42.00;;;;;;6185165;23;20550;-76
2023/04/28 12:42:31;;;;;;;0.73;0.55;;;26.30;42.20;;;;;;6185121;23;20017;-76
2023/04/28 12:44:57;;;;;;;1.58;0.60;;;26.50;41.80;;;;;;6185673;23;20404;-76
2023/04/28 12:47:23;;;;;;;0.73;0.40;;;26.60;41.00;;;;;;6185932;23;20032;-76
2023/04/28 12:49:51;;;;;;;2.60;0.40;;;26.70;41.80;;;;;;6186239;23;20005;-75